Time;durP1;ratioP1;P1;durP2;ratioP2;P2;SDS_P1;SDS_P2;PMS_P1;PMS_P2;Temp;Humidity;BMP_temperature;BMP_pressure;BME280_temperature;BME280_humidity;BME280_pressure;Samples;Min_cycle;Max_cycle;Signal;HPM_P1;HPM_P2
2021/01/15 00:00:06;;;;;;;10.80;6.12;;;;;;;-4.54;74.71;100619.89;1690495;82;28496;-79
2021/01/15 00:02:36;;;;;;;10.72;5.20;;;;;;;-4.61;74.91;100624.64;1701239;83;25766;-79
2021/01/15 00:05:06;;;;;;;10.43;5.72;;;;;;;-4.67;74.79;100630.23;1686262;83;25869;-79
2021/01/15 00:07:34;;;;;;;14.43;5.57;;;;;;;-4.73;74.31;100627.48;1677169;83;25523;-78
2021/01/15 00:10:04;;;;;;;12.43;6.60;;;;;;;-4.79;74.42;100643.53;1659892;83;25752;-79
2021/01/15 00:12:32;;;;;;;10.68;5.15;;;;;;;-4.86;74.57;100637.00;1730209;82;27200;-79
2021/01/15 00:15:01;;;;;;;9.63;5.80;;;;;;;-4.94;74.33;100636.58;1693110;83;25731;-78
2021/01/15 00:17:34;;;;;;;13.13;6.37;;;;;;;-5.02;73.72;100636.64;1687445;83;25737;-78
2021/01/15 00:20:05;;;;;;;15.32;7.20;;;;;;;-5.11;73.94;100641.92;1682807;83;26078;-79
2021/01/15 00:22:33;;;;;;;11.00;5.78;;;;;;;-5.20;73.72;100642.47;1714514;82;25712;-79
2021/01/15 00:25:02;;;;;;;12.90;6.85;;;;;;;-5.27;73.95;100650.71;1675831;84;28399;-79
2021/01/15 00:27:30;;;;;;;12.58;6.25;;;;;;;-5.33;74.17;100654.52;1674476;82;26350;-78
2021/01/15 00:29:59;;;;;;;12.10;5.83;;;;;;;-5.37;74.34;100659.53;1712204;82;25691;-79
2021/01/15 00:32:27;;;;;;;14.25;6.08;;;;;;;-5.41;74.01;100667.16;1709124;81;25832;-79
2021/01/15 00:34:55;;;;;;;11.93;6.20;;;;;;;-5.46;74.37;100662.64;1684901;83;25690;-79
2021/01/15 00:37:24;;;;;;;12.18;6.40;;;;;;;-5.49;74.52;100665.41;1678109;81;27430;-79
2021/01/15 00:39:52;;;;;;;11.83;6.42;;;;;;;-5.54;74.41;100665.66;1730798;81;26217;-78
2021/01/15 00:42:20;;;;;;;10.48;6.03;;;;;;;-5.58;74.38;100671.97;1713264;81;26272;-79
2021/01/15 00:44:49;;;;;;;16.15;7.15;;;;;;;-5.65;74.51;100671.95;1716662;81;26375;-79
2021/01/15 00:47:17;;;;;;;11.90;6.22;;;;;;;-5.69;74.60;100673.01;1674403;81;26156;-78
2021/01/15 00:49:45;;;;;;;12.73;6.75;;;;;;;-5.73;74.70;100677.20;1710260;82;28048;-79
2021/01/15 00:52:16;;;;;;;10.50;5.80;;;;;;;-5.77;74.89;100677.80;1655073;83;25685;-79
2021/01/15 00:54:46;;;;;;;12.58;6.85;;;;;;;-5.81;74.98;100676.28;1679295;83;26289;-79
2021/01/15 00:57:14;;;;;;;11.57;5.97;;;;;;;-5.84;75.20;100681.72;1676504;81;25845;-78
2021/01/15 00:59:42;;;;;;;15.08;6.85;;;;;;;-5.84;75.40;100686.08;1706348;81;26345;-79
2021/01/15 01:02:23;;;;;;;12.70;6.20;;;;;;;-5.81;75.36;100688.02;1831311;77;25648;-78
2021/01/15 01:04:51;;;;;;;12.82;5.60;;;;;;;-5.91;75.35;100684.27;1795698;78;25830;-79
2021/01/15 01:07:19;;;;;;;12.35;7.08;;;;;;;-5.99;74.87;100685.59;1769555;78;27516;-79
2021/01/15 01:09:46;;;;;;;11.22;6.85;;;;;;;-6.09;75.06;100687.00;1725141;80;25787;-79
2021/01/15 01:12:13;;;;;;;13.60;7.20;;;;;;;-6.13;75.09;100694.57;1730488;81;25749;-79
2021/01/15 01:14:41;;;;;;;14.90;6.83;;;;;;;-6.20;75.11;100694.52;1766629;80;25814;-78
2021/01/15 01:17:08;;;;;;;15.90;7.58;;;;;;;-6.27;75.17;100698.36;1702030;81;25898;-79
2021/01/15 01:19:35;;;;;;;13.28;7.25;;;;;;;-6.33;75.18;100697.73;1718269;81;27537;-79
2021/01/15 01:22:02;;;;;;;13.38;5.80;;;;;;;-6.36;75.26;100698.37;1724757;80;26470;-78
2021/01/15 01:24:30;;;;;;;14.87;6.83;;;;;;;-6.39;75.32;100695.45;1770109;80;25799;-78
2021/01/15 01:26:57;;;;;;;13.32;7.60;;;;;;;-6.39;75.37;100695.45;1703068;81;25855;-79
2021/01/15 01:29:24;;;;;;;18.07;8.30;;;;;;;-6.39;75.54;100697.20;1716955;80;26026;-79
2021/01/15 01:31:52;;;;;;;14.87;6.50;;;;;;;-6.38;75.55;100693.24;1718959;82;28374;-78
2021/01/15 01:34:19;;;;;;;11.85;6.15;;;;;;;-6.41;75.55;100702.95;1720135;81;26286;-78
2021/01/15 01:36:46;;;;;;;14.30;6.58;;;;;;;-6.47;75.74;100696.31;1710412;80;26569;-78
2021/01/15 01:39:14;;;;;;;14.58;7.17;;;;;;;-6.57;75.89;100692.48;1705215;81;25839;-79
2021/01/15 01:41:41;;;;;;;13.53;5.90;;;;;;;-6.65;75.95;100704.20;1720518;81;25894;-79
2021/01/15 01:44:08;;;;;;;15.53;6.92;;;;;;;-6.72;76.17;100707.57;1702908;81;27619;-79
2021/01/15 01:46:36;;;;;;;20.75;9.88;;;;;;;-6.77;76.20;100710.84;1674118;81;25912;-78
2021/01/15 01:49:04;;;;;;;12.85;7.20;;;;;;;-6.82;76.16;100718.52;1718326;81;25735;-78
2021/01/15 01:51:31;;;;;;;12.90;5.90;;;;;;;-6.86;76.20;100716.50;1719526;81;26133;-79
2021/01/15 01:53:59;;;;;;;18.20;7.97;;;;;;;-6.90;76.33;100709.76;1749860;81;25931;-79
2021/01/15 01:56:27;;;;;;;18.77;8.23;;;;;;;-6.95;76.34;100713.52;1706882;80;27535;-79
2021/01/15 01:58:55;;;;;;;16.80;7.85;;;;;;;-6.99;76.42;100714.09;1749855;81;25740;-79
2021/01/15 02:01:25;;;;;;;19.25;8.40;;;;;;;-7.00;76.41;100716.34;1703561;82;26422;-79
2021/01/15 02:04:05;;;;;;;20.97;9.70;;;;;;;-7.01;76.47;100708.61;1753166;81;25884;-78
2021/01/15 02:06:36;;;;;;;19.20;8.95;;;;;;;-7.01;76.46;100702.92;1707759;81;25886;-78
2021/01/15 02:09:06;;;;;;;18.95;9.08;;;;;;;-6.96;76.44;100710.06;1693095;81;27648;-79
2021/01/15 02:11:51;;;;;;;14.45;7.92;;;;;;;-6.93;76.42;100716.44;1706507;82;26175;-78
2021/01/15 02:14:43;;;;;;;11.20;6.33;;;;;;;-6.91;76.43;100726.31;1756395;81;25642;-79
2021/01/15 02:17:15;;;;;;;17.05;7.60;;;;;;;-6.91;76.50;100732.83;1704951;82;26070;-79
2021/01/15 02:20:00;;;;;;;20.70;8.48;;;;;;;-6.92;76.53;100739.38;1742196;81;26096;-79
2021/01/15 02:23:01;;;;;;;19.50;9.28;;;;;;;-6.89;76.61;100742.70;1716925;81;27621;-79
2021/01/15 02:26:15;;;;;;;15.60;8.08;;;;;;;-6.87;76.72;100740.87;1742220;81;26078;-79
2021/01/15 02:29:15;;;;;;;16.85;7.97;;;;;;;-6.89;76.61;100744.45;1721823;81;25833;-78
2021/01/15 02:31:49;;;;;;;;;;;;;;;-6.93;76.72;100756.79;1748789;81;25414;-78
2021/01/15 02:34:55;;;;;;;20.43;7.97;;;;;;;-6.90;76.81;100756.63;1748916;81;25827;-79
2021/01/15 02:37:30;;;;;;;17.73;8.35;;;;;;;-6.89;76.88;100761.38;1720606;81;28652;-78
2021/01/15 02:40:10;;;;;;;16.75;7.75;;;;;;;-6.87;76.96;100764.30;1733913;80;25918;-79
2021/01/15 02:42:39;;;;;;;20.75;8.38;;;;;;;-6.78;77.00;100766.92;1738417;80;25781;-79
2021/01/15 02:45:10;;;;;;;15.70;7.95;;;;;;;-6.75;76.78;100762.40;1722293;81;25880;-79
2021/01/15 02:47:56;;;;;;;20.77;8.83;;;;;;;-6.77;76.80;100768.14;1718035;81;25975;-79
2021/01/15 02:50:26;;;;;;;15.60;8.10;;;;;;;-6.76;76.71;100765.09;1729191;81;27399;-78
2021/01/15 02:52:54;;;;;;;22.30;10.15;;;;;;;-6.72;76.92;100761.42;1743992;80;25422;-79
2021/01/15 02:55:21;;;;;;;32.40;15.98;;;;;;;-6.65;77.10;100758.91;1709358;81;25849;-78
2021/01/15 02:57:50;;;;;;;21.82;8.93;;;;;;;-6.55;77.34;100760.14;1747263;80;25867;-78
2021/01/15 03:00:21;;;;;;;19.05;8.60;;;;;;;-6.42;77.13;100770.34;1707027;82;25974;-79
2021/01/15 03:03:18;;;;;;;19.70;9.73;;;;;;;-6.39;76.75;100757.14;1739947;81;27622;-78
2021/01/15 03:06:05;;;;;;;30.52;11.53;;;;;;;-6.35;76.84;100752.19;1741295;81;25846;-78
2021/01/15 03:08:34;;;;;;;27.95;12.20;;;;;;;-6.25;76.74;100754.70;1735364;81;25970;-79
2021/01/15 03:11:02;;;;;;;34.45;14.43;;;;;;;-6.16;76.76;100738.61;1712321;81;26536;-79
2021/01/15 03:13:31;;;;;;;23.12;10.60;;;;;;;-6.12;76.65;100741.89;1684751;83;25917;-79
2021/01/15 03:16:09;;;;;;;46.15;21.97;;;;;;;-6.01;76.78;100736.52;1793878;79;25706;-78
2021/01/15 03:18:38;;;;;;;25.53;15.20;;;;;;;-5.99;76.64;100733.38;1739144;80;25789;-78
2021/01/15 03:21:06;;;;;;;23.77;12.07;;;;;;;-5.98;76.14;100734.19;1737026;82;27338;-79
2021/01/15 03:23:37;;;;;;;28.60;16.70;;;;;;;-6.02;76.12;100743.09;1708855;82;25767;-79
2021/01/15 03:26:07;;;;;;;63.48;36.90;;;;;;;-6.03;76.27;100742.25;1707098;82;25711;-78
2021/01/15 03:28:34;;;;;;;34.23;17.48;;;;;;;-5.95;76.43;100740.11;1734628;82;25756;-80
2021/01/15 03:31:02;;;;;;;26.68;11.15;;;;;;;-5.91;76.29;100733.81;1702913;82;25903;-79
2021/01/15 03:33:29;;;;;;;52.33;20.10;;;;;;;-5.86;76.33;100741.40;1734689;82;28942;-78
2021/01/15 03:35:56;;;;;;;33.53;14.65;;;;;;;-5.85;76.05;100743.92;1681376;82;25975;-79
2021/01/15 03:38:24;;;;;;;24.75;12.88;;;;;;;-5.88;75.83;100734.12;1634575;85;25814;-79
2021/01/15 03:40:51;;;;;;;34.40;14.13;;;;;;;-5.90;76.10;100749.82;1656626;85;25761;-79
2021/01/15 03:43:23;;;;;;;34.80;15.08;;;;;;;-5.85;75.88;100745.22;1682328;85;25790;-80
2021/01/15 03:45:52;;;;;;;44.95;18.92;;;;;;;-5.88;75.75;100738.84;1611922;84;27626;-78
2021/01/15 03:48:21;;;;;;;43.40;16.65;;;;;;;-5.84;75.95;100743.47;1632855;84;25878;-79
2021/01/15 03:50:52;;;;;;;26.23;13.40;;;;;;;-5.85;75.86;100741.31;1678674;83;25806;-79
2021/01/15 03:53:20;;;;;;;24.95;13.25;;;;;;;-5.79;75.93;100751.39;1681322;84;25805;-79
2021/01/15 03:55:49;;;;;;;24.07;13.28;;;;;;;-5.75;75.79;100741.16;1628036;84;25888;-79
2021/01/15 03:58:17;;;;;;;23.75;12.10;;;;;;;;;;1655042;84;28459;-79
2021/01/15 04:00:44;;;;;;;24.65;12.98;;;;;;;-5.84;75.42;100731.27;1652698;84;25707;-79
2021/01/15 04:03:11;;;;;;;23.65;11.63;;;;;;;-5.90;75.34;100733.36;1642982;85;26590;-78
2021/01/15 04:05:39;;;;;;;27.15;11.93;;;;;;;-5.94;75.59;100727.89;1613711;84;25784;-79
2021/01/15 04:08:06;;;;;;;21.20;11.40;;;;;;;-5.91;75.65;100732.96;1634618;84;26000;-78
2021/01/15 04:10:33;;;;;;;22.15;11.22;;;;;;;-5.88;75.71;100732.81;1657160;84;27180;-79
2021/01/15 04:13:01;;;;;;;24.05;11.55;;;;;;;-5.82;75.86;100715.05;1656165;84;25850;-80
2021/01/15 04:15:28;;;;;;;24.10;11.30;;;;;;;-5.77;75.76;100715.63;1648479;84;25797;-79
2021/01/15 04:17:59;;;;;;;37.23;15.28;;;;;;;-5.76;75.47;100721.70;1654327;85;25819;-79
2021/01/15 04:20:27;;;;;;;43.28;18.25;;;;;;;-5.77;75.53;100728.67;1650396;85;25935;-79
2021/01/15 04:22:54;;;;;;;39.70;15.65;;;;;;;-5.75;75.72;100752.09;1650809;85;28533;-79
2021/01/15 04:25:21;;;;;;;21.40;11.22;;;;;;;-5.74;75.71;100758.97;1622451;84;26442;-79
2021/01/15 04:27:49;;;;;;;21.48;9.20;;;;;;;-5.72;75.38;100772.33;1653173;85;25804;-78
2021/01/15 04:30:17;;;;;;;17.02;8.73;;;;;;;-5.91;74.71;100819.87;1668241;84;26012;-79
2021/01/15 04:32:48;;;;;;;17.60;8.63;;;;;;;-6.20;74.93;100817.04;1616506;85;25852;-79
2021/01/15 04:35:18;;;;;;;18.90;9.73;;;;;;;-6.39;75.58;100794.92;1636453;85;27656;-79
2021/01/15 04:37:47;;;;;;;23.32;11.05;;;;;;;-6.48;75.88;100804.52;1691922;84;25467;-79
2021/01/15 04:40:16;;;;;;;12.75;6.10;;;;;;;-6.53;76.19;100811.25;1672342;84;25941;-79
2021/01/15 04:42:45;;;;;;;12.82;6.90;;;;;;;-6.56;76.28;100804.88;1631417;85;26646;-79
2021/01/15 04:45:16;;;;;;;19.20;8.70;;;;;;;-6.60;76.22;100803.80;1644308;85;25820;-79
2021/01/15 04:47:45;;;;;;;;;;;;;;;-6.65;76.45;100794.89;1674937;84;28096;-79
2021/01/15 04:50:16;;;;;;;13.75;7.97;;;;;;;-6.63;76.68;100795.66;1650748;84;26015;-79
2021/01/15 04:52:52;;;;;;;23.60;9.98;;;;;;;-6.61;76.59;100794.30;1652202;84;26478;-78
2021/01/15 04:55:23;;;;;;;51.35;16.12;;;;;;;-6.62;76.89;100793.45;1642060;84;25787;-79
2021/01/15 04:57:53;;;;;;;29.42;12.35;;;;;;;-6.57;76.83;100790.63;1669787;84;26021;-79
2021/01/15 05:00:25;;;;;;;32.58;13.85;;;;;;;-6.48;77.10;100788.89;1674516;84;27521;-79
2021/01/15 05:02:55;;;;;;;99.32;37.60;;;;;;;-6.37;77.30;100785.27;1648074;84;25849;-79
2021/01/15 05:05:27;;;;;;;41.77;17.32;;;;;;;-6.30;77.06;100781.00;1667265;84;25857;-79
2021/01/15 05:08:11;;;;;;;21.80;10.75;;;;;;;-6.22;77.07;100782.39;1665946;84;25759;-78
2021/01/15 05:10:44;;;;;;;17.62;9.03;;;;;;;-6.15;77.11;100785.90;1670876;85;25703;-79
2021/01/15 05:13:15;;;;;;;22.05;10.15;;;;;;;-6.13;76.77;100781.45;1648720;84;27546;-79
2021/01/15 05:15:47;;;;;;;22.32;10.60;;;;;;;-6.10;76.92;100785.67;1615286;85;25774;-79
2021/01/15 05:18:18;;;;;;;38.25;13.75;;;;;;;-6.06;76.87;100788.05;1678793;85;25750;-79
2021/01/15 05:20:47;;;;;;;45.83;14.83;;;;;;;-6.04;76.70;100773.63;1669020;85;26004;-79
2021/01/15 05:23:17;;;;;;;27.45;10.95;;;;;;;-6.05;76.80;100780.59;1643706;85;25776;-79
2021/01/15 05:25:47;;;;;;;38.80;14.07;;;;;;;-6.00;76.97;100787.73;1674158;83;27596;-79
2021/01/15 05:28:19;;;;;;;35.85;15.83;;;;;;;-5.97;76.71;100778.47;1683181;85;32778;-79
2021/01/15 05:30:59;;;;;;;24.07;10.43;;;;;;;-5.96;76.72;100776.67;1646176;85;25870;-79
2021/01/15 05:33:26;;;;;;;39.92;13.93;;;;;;;-5.98;76.50;100787.20;1668985;85;26149;-79
2021/01/15 05:35:53;;;;;;;35.58;14.15;;;;;;;-6.06;76.43;100770.25;1622995;85;25782;-80
2021/01/15 05:38:22;;;;;;;24.80;11.25;;;;;;;-6.08;76.56;100774.70;1640112;86;27361;-79
2021/01/15 05:40:58;;;;;;;21.87;10.85;;;;;;;-6.03;76.71;100783.14;1651728;85;25888;-80
2021/01/15 05:43:32;;;;;;;32.45;15.10;;;;;;;-5.99;76.67;100780.31;1626318;85;25415;-79
2021/01/15 05:46:18;;;;;;;28.07;12.28;;;;;;;-5.97;76.70;100776.31;1648728;85;26366;-79
2021/01/15 05:48:57;;;;;;;22.98;10.30;;;;;;;-5.93;76.75;100778.69;1646618;85;25752;-79
2021/01/15 05:51:30;;;;;;;23.73;11.25;;;;;;;-5.93;76.60;100773.47;1672807;85;27525;-78
2021/01/15 05:53:59;;;;;;;15.90;8.58;;;;;;;-5.95;76.46;100775.31;1622713;85;25866;-78
2021/01/15 05:56:45;;;;;;;20.70;10.08;;;;;;;-5.98;76.20;100785.89;1645528;85;26473;-79
2021/01/15 05:59:18;;;;;;;22.85;10.48;;;;;;;-6.04;76.33;100775.78;1659767;85;26340;-79
2021/01/15 06:01:55;;;;;;;30.45;12.00;;;;;;;-6.04;76.50;100787.52;1665278;85;26559;-79
2021/01/15 06:04:39;;;;;;;36.08;13.50;;;;;;;-6.05;76.56;100791.52;1636724;85;28512;-78
2021/01/15 06:07:15;;;;;;;42.98;15.70;;;;;;;-6.03;76.79;100781.84;1668962;85;25826;-79
2021/01/15 06:09:47;;;;;;;56.60;20.20;;;;;;;-6.01;76.85;100787.83;1663100;83;26505;-78
2021/01/15 06:12:18;;;;;;;35.50;14.65;;;;;;;-5.98;76.91;100788.50;1683651;83;26145;-79
2021/01/15 06:14:56;;;;;;;22.67;11.28;;;;;;;-5.91;76.94;100790.34;1623434;85;25874;-79
2021/01/15 06:17:21;;;;;;;27.20;11.93;;;;;;;-5.88;76.84;100797.53;1676178;85;27546;-79
2021/01/15 06:19:59;;;;;;;27.63;10.30;;;;;;;-5.88;76.81;100801.44;1647678;85;25819;-79
2021/01/15 06:22:35;;;;;;;23.85;9.88;;;;;;;-5.86;76.79;100798.78;1673899;85;25383;-78
2021/01/15 06:25:26;;;;;;;22.27;11.48;;;;;;;-5.88;76.72;100804.05;1626975;85;25444;-79
2021/01/15 06:28:02;;;;;;;23.10;9.53;;;;;;;-5.94;76.64;100792.63;1649875;85;26149;-79
2021/01/15 06:30:34;;;;;;;24.85;11.80;;;;;;;-5.93;76.87;100802.61;1669175;85;26128;-79
2021/01/15 06:33:11;;;;;;;343.07;110.03;;;;;;;-5.92;76.83;100804.31;1668940;85;25824;-79
2021/01/15 06:35:44;;;;;;;366.17;171.70;;;;;;;-5.92;76.73;100799.09;1605022;85;25995;-79
2021/01/15 06:38:16;;;;;;;45.48;23.92;;;;;;;-5.88;76.77;100810.57;1644014;85;25861;-77
2021/01/15 06:40:52;;;;;;;32.20;17.17;;;;;;;-5.82;76.78;100816.77;1652351;85;25817;-78
2021/01/15 06:43:34;;;;;;;37.95;23.98;;;;;;;-5.79;76.80;100812.69;1677007;85;26451;-78
2021/01/15 06:46:05;;;;;;;26.55;12.88;;;;;;;-5.73;76.83;100821.49;1633615;85;26043;-79
2021/01/15 06:48:39;;;;;;;32.80;14.05;;;;;;;-5.66;76.73;100824.63;1630951;85;32675;-78
2021/01/15 06:51:10;;;;;;;27.37;13.68;;;;;;;-5.63;76.38;100813.59;1647446;85;25852;-78
2021/01/15 06:53:43;;;;;;;39.42;17.95;;;;;;;-5.58;76.59;100826.41;1646443;85;25889;-79
2021/01/15 06:56:18;;;;;;;45.28;19.05;;;;;;;-5.55;76.37;100821.02;1625788;85;28373;-78
2021/01/15 06:58:46;;;;;;;42.40;18.90;;;;;;;-5.54;76.36;100825.33;1653279;85;25991;-78
2021/01/15 07:01:25;;;;;;;73.50;27.45;;;;;;;-5.52;76.27;100828.20;1672903;85;25757;-79
2021/01/15 07:04:09;;;;;;;79.03;26.17;;;;;;;-5.49;76.36;100819.38;1648603;85;26167;-79
2021/01/15 07:07:03;;;;;;;37.30;16.20;;;;;;;-5.46;76.31;100825.76;1671327;85;25769;-79
2021/01/15 07:09:32;;;;;;;33.75;14.68;;;;;;;-5.37;76.22;100837.03;1676279;83;27336;-79
2021/01/15 07:12:08;;;;;;;125.60;44.20;;;;;;;-5.37;76.35;100830.50;1644975;85;25900;-79
2021/01/15 07:14:51;;;;;;;53.83;23.52;;;;;;;-5.34;76.27;100826.41;1644559;85;26441;-78
2021/01/15 07:17:36;;;;;;;77.30;34.50;;;;;;;-5.31;76.18;100827.56;1674833;83;25981;-79
2021/01/15 07:20:19;;;;;;;51.63;24.18;;;;;;;-5.27;76.06;100824.31;1648747;85;25921;-78
2021/01/15 07:22:52;;;;;;;33.80;17.60;;;;;;;-5.30;76.04;100829.23;1665940;85;26095;-78
2021/01/15 07:25:23;;;;;;;89.65;37.80;;;;;;;-5.23;76.26;100820.61;1616212;85;26503;-78
2021/01/15 07:27:52;;;;;;;59.80;28.30;;;;;;;-5.17;76.18;100817.22;1629578;85;26514;-78
2021/01/15 07:30:28;;;;;;;117.60;53.23;;;;;;;-5.15;75.91;100822.38;1656170;85;25878;-78
2021/01/15 07:32:58;;;;;;;39.35;22.55;;;;;;;-5.15;75.80;100825.81;1670884;83;25822;-78
2021/01/15 07:35:28;;;;;;;33.53;15.98;;;;;;;-5.14;76.09;100827.97;1637370;85;28711;-78
2021/01/15 07:38:16;;;;;;;56.05;20.92;;;;;;;-5.08;76.19;100821.95;1626940;85;25874;-78
2021/01/15 07:40:45;;;;;;;65.08;25.68;;;;;;;-5.07;75.90;100821.02;1672181;85;25846;-78
2021/01/15 07:43:33;;;;;;;54.00;26.23;;;;;;;-5.04;76.10;100824.78;1672635;85;25584;-79
2021/01/15 07:46:07;;;;;;;53.52;22.90;;;;;;;-5.02;75.70;100821.61;1649267;85;26169;-78
2021/01/15 07:48:38;;;;;;;65.77;32.23;;;;;;;-5.02;75.87;100825.53;1645999;85;27636;-79
2021/01/15 07:51:12;;;;;;;78.35;28.62;;;;;;;-5.00;76.18;100822.38;1633914;85;26278;-78
2021/01/15 07:53:43;;;;;;;43.95;19.37;;;;;;;-4.97;75.99;100822.67;1671570;85;25773;-79
2021/01/15 07:56:12;;;;;;;38.17;17.75;;;;;;;-4.92;76.17;100825.89;1612715;85;26010;-78
2021/01/15 07:58:45;;;;;;;39.08;19.20;;;;;;;-4.89;75.97;100817.41;1625366;85;25902;-79
2021/01/15 08:01:17;;;;;;;61.92;25.75;;;;;;;-4.88;75.92;100821.72;1652329;83;27966;-79
2021/01/15 08:03:54;;;;;;;48.17;20.72;;;;;;;-4.88;75.80;100825.64;1666988;85;26678;-79
2021/01/15 08:06:28;;;;;;;49.75;20.35;;;;;;;-4.85;75.67;100824.16;1773336;79;25654;-79
2021/01/15 08:09:04;;;;;;;69.62;27.80;;;;;;;-4.89;75.80;100825.25;1718715;82;25850;-79
2021/01/15 08:11:37;;;;;;;64.77;32.38;;;;;;;-4.87;75.98;100822.55;1724539;81;26102;-79
2021/01/15 08:14:20;;;;;;;66.05;29.98;;;;;;;-4.79;76.07;100821.20;1672959;84;26328;-80
2021/01/15 08:16:50;;;;;;;54.00;27.22;;;;;;;-4.67;76.28;100821.45;1644231;84;25745;-82
2021/01/15 08:19:23;;;;;;;45.50;20.05;;;;;;;-4.62;76.12;100824.20;1654989;85;25882;-78
2021/01/15 08:21:51;;;;;;;51.00;19.45;;;;;;;-4.56;75.59;100821.24;1642826;85;25877;-79
2021/01/15 08:24:22;;;;;;;60.10;23.92;;;;;;;-4.55;75.70;100821.61;1663613;84;27477;-80
2021/01/15 08:26:54;;;;;;;41.75;19.32;;;;;;;-4.47;76.11;100816.78;1647965;84;25868;-76
2021/01/15 08:29:28;;;;;;;43.90;20.75;;;;;;;-4.41;75.64;100819.53;1676373;83;25879;-76
2021/01/15 08:31:58;;;;;;;65.35;26.52;;;;;;;-4.43;75.52;100812.24;1667087;83;25712;-75
2021/01/15 08:34:34;;;;;;;69.10;30.05;;;;;;;-4.42;75.36;100816.06;1674839;83;26221;-74
2021/01/15 08:37:05;;;;;;;66.12;27.80;;;;;;;-4.40;75.30;100815.97;1663210;82;27552;-76
2021/01/15 08:39:57;;;;;;;58.50;23.35;;;;;;;-4.44;75.29;100817.08;1648243;85;25923;-74
2021/01/15 08:42:26;;;;;;;51.80;22.10;;;;;;;-4.45;75.22;100816.72;1647316;85;25977;-79
2021/01/15 08:44:54;;;;;;;56.08;24.23;;;;;;;-4.43;75.46;100814.86;1685362;84;25418;-78
2021/01/15 08:47:23;;;;;;;74.58;31.35;;;;;;;-4.38;75.47;100820.19;1634016;84;25847;-79
2021/01/15 08:49:58;;;;;;;66.50;27.52;;;;;;;-4.35;75.26;100820.48;1643017;84;27618;-80
2021/01/15 08:52:29;;;;;;;170.97;67.20;;;;;;;-4.35;75.19;100819.18;1659831;84;25936;-79
2021/01/15 08:55:04;;;;;;;62.60;28.87;;;;;;;-4.39;74.96;100823.75;1682282;84;25961;-79
2021/01/15 08:57:32;;;;;;;56.25;23.65;;;;;;;-4.46;74.90;100813.71;1620339;84;26174;-80
2021/01/15 09:00:14;;;;;;;58.68;24.35;;;;;;;-4.50;74.65;100820.89;1637296;84;26352;-81
2021/01/15 09:02:43;;;;;;;52.35;22.95;;;;;;;-4.53;74.57;100822.84;1644865;84;28369;-79
2021/01/15 09:05:19;;;;;;;47.38;21.73;;;;;;;-4.55;74.99;100818.99;1673403;84;26728;-80
2021/01/15 09:07:51;;;;;;;45.20;19.60;;;;;;;-4.53;75.01;100824.16;1639738;84;26537;-79
2021/01/15 09:10:19;;;;;;;52.90;21.30;;;;;;;-4.45;75.38;100836.33;1621035;84;25945;-78
2021/01/15 09:12:49;;;;;;;106.95;41.70;;;;;;;-4.37;75.35;100834.97;1627466;84;25779;-78
2021/01/15 09:15:25;;;;;;;51.92;21.60;;;;;;;-4.29;75.12;100836.67;1667360;84;27598;-81
2021/01/15 09:17:55;;;;;;;52.60;24.95;;;;;;;-4.23;74.60;100838.08;1633012;85;25670;-80
2021/01/15 09:20:23;;;;;;;68.83;29.27;;;;;;;-4.25;74.64;100835.56;1648730;86;26027;-78
2021/01/15 09:22:51;;;;;;;50.58;24.57;;;;;;;-4.22;75.15;100835.40;1646638;86;26115;-79
2021/01/15 09:25:19;;;;;;;44.10;19.55;;;;;;;-4.10;75.05;100837.30;1662449;84;25805;-79
2021/01/15 09:27:47;;;;;;;44.05;21.02;;;;;;;-4.08;74.62;100841.98;1621496;84;28353;-78
2021/01/15 09:30:16;;;;;;;44.13;19.57;;;;;;;-4.07;74.64;100835.83;1639734;84;26345;-78
2021/01/15 09:32:47;;;;;;;59.77;24.35;;;;;;;-4.02;74.50;100840.31;1640931;84;26508;-79
2021/01/15 09:35:20;;;;;;;101.27;45.08;;;;;;;-3.98;74.76;100843.12;1675692;84;26634;-79
2021/01/15 09:37:47;;;;;;;60.58;26.00;;;;;;;-3.98;74.38;100833.97;1675441;83;25753;-78
2021/01/15 09:40:16;;;;;;;70.35;32.53;;;;;;;-3.98;74.12;100840.50;1666771;83;28604;-79
2021/01/15 09:42:50;;;;;;;59.67;26.30;;;;;;;-4.01;74.50;100841.16;1636598;85;25433;-79
2021/01/15 09:45:17;;;;;;;53.58;25.72;;;;;;;-4.00;73.91;100842.37;1688258;83;25906;-78
2021/01/15 09:47:46;;;;;;;60.90;29.10;;;;;;;-3.97;74.43;100845.28;1661616;83;25850;-79
2021/01/15 09:50:14;;;;;;;65.65;31.55;;;;;;;-3.93;74.08;100842.86;1674319;83;25842;-80
2021/01/15 09:52:50;;;;;;;42.08;19.73;;;;;;;-3.89;73.95;100850.90;1669549;83;28380;-82
2021/01/15 09:55:18;;;;;;;42.90;18.90;;;;;;;-3.87;74.12;100847.73;1691881;83;25384;-80
2021/01/15 09:57:47;;;;;;;45.17;22.25;;;;;;;-3.85;73.46;100850.28;1647023;83;26337;-80
2021/01/15 10:00:15;;;;;;;46.83;21.70;;;;;;;-3.86;73.86;100829.80;1669253;84;25842;-80
2021/01/15 10:02:43;;;;;;;72.65;36.75;;;;;;;-3.78;74.21;100824.10;1661940;83;25812;-80
2021/01/15 10:05:11;;;;;;;58.33;29.98;;;;;;;-3.73;73.86;100815.06;1694041;83;27556;-80
2021/01/15 10:07:39;;;;;;;43.85;20.97;;;;;;;-3.72;73.51;100809.38;1642555;83;25776;-80
2021/01/15 10:10:08;;;;;;;40.88;20.80;;;;;;;-3.67;73.58;100811.23;1667605;83;25970;-79
2021/01/15 10:12:35;;;;;;;41.20;22.13;;;;;;;-3.68;73.38;100807.79;1666333;83;26458;-79
2021/01/15 10:15:04;;;;;;;47.00;22.27;;;;;;;-3.67;73.50;100792.44;1669172;83;25768;-80
2021/01/15 10:17:31;;;;;;;48.38;22.60;;;;;;;-3.62;73.46;100788.24;1571657;87;27584;-80
2021/01/15 10:20:00;;;;;;;39.27;18.60;;;;;;;-3.52;73.47;100790.67;1624675;84;25993;-80
2021/01/15 10:22:30;;;;;;;59.00;27.52;;;;;;;-3.41;73.78;100796.95;1608853;86;25819;-80
2021/01/15 10:24:58;;;;;;;35.83;16.42;;;;;;;-3.36;73.18;100800.11;1636523;87;25738;-80
2021/01/15 10:27:25;;;;;;;35.78;17.40;;;;;;;-3.35;72.44;100799.19;1569255;87;25836;-79
2021/01/15 10:29:53;;;;;;;46.02;23.77;;;;;;;-3.34;72.21;100796.95;1612386;86;27642;-79
2021/01/15 10:32:20;;;;;;;39.08;19.00;;;;;;;-3.35;72.54;100799.19;1594014;88;25892;-79
2021/01/15 10:34:48;;;;;;;42.60;20.92;;;;;;;-3.32;72.25;100789.00;1623234;86;25972;-79
2021/01/15 10:37:15;;;;;;;46.73;20.70;;;;;;;-3.29;72.36;100780.94;1626684;86;25725;-79
2021/01/15 10:39:44;;;;;;;56.92;24.87;;;;;;;-3.27;72.34;100777.75;1639079;86;25792;-80
2021/01/15 10:42:14;;;;;;;74.32;30.62;;;;;;;-3.29;72.06;100771.30;1615880;84;28334;-79
2021/01/15 10:44:41;;;;;;;79.60;29.55;;;;;;;-3.26;72.04;100772.90;1628794;87;25784;-80
2021/01/15 10:47:13;;;;;;;69.65;27.95;;;;;;;-3.22;71.60;100771.77;1574987;87;25873;-79
2021/01/15 10:49:38;;;;;;;49.70;19.95;;;;;;;-3.23;71.76;100764.38;1610003;87;25868;-80
2021/01/15 10:52:12;;;;;;;48.70;19.62;;;;;;;-3.22;72.14;100761.30;1609668;87;25840;-80
2021/01/15 10:54:39;;;;;;;50.35;19.73;;;;;;;-3.22;71.50;100763.45;1621065;87;27615;-79
2021/01/15 10:57:06;;;;;;;48.83;21.12;;;;;;;-3.20;71.75;100763.34;1576418;87;26511;-80
2021/01/15 10:59:33;;;;;;;99.62;46.63;;;;;;;-3.20;72.03;100753.72;1595061;87;26519;-80
2021/01/15 11:02:01;;;;;;;117.53;54.67;;;;;;;-3.21;71.72;100750.70;1603881;87;26399;-80
2021/01/15 11:04:28;;;;;;;51.23;22.20;;;;;;;-3.22;71.04;100742.50;1603492;87;25392;-80
2021/01/15 11:06:57;;;;;;;43.38;22.80;;;;;;;-3.23;71.59;100738.18;1588795;87;27567;-79
2021/01/15 11:09:26;;;;;;;62.53;28.25;;;;;;;-3.21;71.55;100742.85;1600065;86;25944;-80
2021/01/15 11:11:56;;;;;;;45.00;21.77;;;;;;;-3.19;71.87;100732.30;1640891;85;25937;-80
2021/01/15 11:14:23;;;;;;;43.23;19.82;;;;;;;-3.16;71.94;100732.09;1629547;83;25766;-80
2021/01/15 11:16:50;;;;;;;51.18;21.65;;;;;;;-3.12;72.22;100739.66;1606138;87;26215;-80
2021/01/15 11:19:18;;;;;;;58.58;25.48;;;;;;;-3.07;72.46;100737.22;1599801;87;28652;-79
2021/01/15 11:21:45;;;;;;;39.18;19.50;;;;;;;-3.00;71.89;100733.28;1600730;86;25911;-80
2021/01/15 11:24:13;;;;;;;52.17;24.50;;;;;;;-3.03;70.89;100726.91;1614911;87;26176;-80
2021/01/15 11:26:40;;;;;;;39.08;19.67;;;;;;;-3.06;71.55;100724.50;1573016;87;25455;-79
2021/01/15 11:29:10;;;;;;;36.73;20.75;;;;;;;-3.07;71.23;100721.03;1595032;87;26240;-81
2021/01/15 11:31:40;;;;;;;50.98;24.77;;;;;;;-3.12;71.23;100720.01;1592353;87;26413;-80